Time;durP1;ratioP1;P1;durP2;ratioP2;P2;SDS_P1;SDS_P2;PMS_P1;PMS_P2;Temp;Humidity;BMP_temperature;BMP_pressure;BME280_temperature;BME280_humidity;BME280_pressure;Samples;Min_cycle;Max_cycle;Signal;HPM_P1;HPM_P2
2022/12/07 00:01:19;;;;;;;25.30;13.70;;;2.40;99.90;;;;;;5052577;28;20025;-85
2022/12/07 00:03:50;;;;;;;20.52;12.98;;;2.40;99.90;;;;;;5059905;28;20017;-89
2022/12/07 00:06:18;;;;;;;16.63;12.25;;;2.30;99.90;;;;;;5060601;28;20032;-85
2022/12/07 00:08:44;;;;;;;19.70;12.32;;;2.40;99.90;;;;;;5061331;28;20032;-86
2022/12/07 00:11:12;;;;;;;18.55;11.38;;;2.40;99.90;;;;;;5061554;28;20020;-86
2022/12/07 00:13:38;;;;;;;23.80;12.18;;;2.60;99.90;;;;;;5061200;28;20429;-85
2022/12/07 00:16:14;;;;;;;25.42;12.55;;;2.50;99.90;;;;;;5054943;28;20373;-85
2022/12/07 00:18:40;;;;;;;21.83;14.05;;;2.60;99.90;;;;;;5062380;28;20024;-85
2022/12/07 00:21:12;;;;;;;23.25;13.25;;;2.50;99.90;;;;;;5052222;28;20052;-85
2022/12/07 00:23:38;;;;;;;21.15;12.80;;;2.50;99.90;;;;;;5052526;28;20025;-86
2022/12/07 00:26:06;;;;;;;24.35;14.13;;;2.50;99.90;;;;;;5056559;28;20032;-86
2022/12/07 00:28:33;;;;;;;16.15;11.13;;;2.50;99.90;;;;;;5057844;28;20040;-85
2022/12/07 00:31:12;;;;;;;21.20;13.55;;;2.50;99.90;;;;;;5056459;28;20126;-87
2022/12/07 00:33:39;;;;;;;19.27;12.77;;;2.50;99.90;;;;;;5055555;28;20033;-86
2022/12/07 00:36:11;;;;;;;23.17;13.00;;;2.50;99.90;;;;;;5055893;28;20090;-86
2022/12/07 00:38:38;;;;;;;20.48;12.98;;;2.50;99.90;;;;;;5051617;28;20052;-86
2022/12/07 00:41:09;;;;;;;21.08;11.52;;;2.50;99.90;;;;;;5056499;28;20536;-86
2022/12/07 00:43:34;;;;;;;22.63;12.95;;;2.50;99.90;;;;;;5060882;28;20029;-86
2022/12/07 00:46:00;;;;;;;19.98;12.45;;;2.50;99.90;;;;;;5058192;28;20415;-85
2022/12/07 00:48:26;;;;;;;19.17;11.23;;;2.50;99.90;;;;;;5065215;28;20036;-86
2022/12/07 00:50:52;;;;;;;17.67;11.77;;;2.60;99.90;;;;;;5061102;28;20016;-84
2022/12/07 00:53:18;;;;;;;17.10;10.85;;;2.70;99.90;;;;;;5056434;28;20445;-85
2022/12/07 00:55:44;;;;;;;17.45;11.38;;;2.70;99.90;;;;;;5062700;28;20025;-85
2022/12/07 00:58:10;;;;;;;19.63;12.90;;;2.80;99.90;;;;;;5061768;28;20016;-85
2022/12/07 01:00:37;;;;;;;20.70;12.38;;;2.80;99.90;;;;;;5063519;28;20037;-85
2022/12/07 01:03:04;;;;;;;18.92;11.82;;;2.80;99.90;;;;;;5064566;28;20024;-86
2022/12/07 01:05:30;;;;;;;23.40;13.18;;;2.70;99.90;;;;;;5058929;28;20033;-85
2022/12/07 01:07:55;;;;;;;22.70;13.73;;;2.70;99.90;;;;;;5061711;28;20029;-84
2022/12/07 01:10:21;;;;;;;33.10;15.98;;;2.70;99.90;;;;;;5056506;28;20083;-84
2022/12/07 01:12:47;;;;;;;22.40;14.68;;;2.70;99.90;;;;;;5059173;28;20039;-84
2022/12/07 01:15:13;;;;;;;23.75;14.05;;;2.70;99.90;;;;;;5064916;28;20044;-87
2022/12/07 01:17:38;;;;;;;22.17;13.15;;;2.60;99.90;;;;;;5058659;28;20024;-84
2022/12/07 01:20:05;;;;;;;23.15;14.15;;;2.60;99.90;;;;;;5062478;28;20107;-83
2022/12/07 01:22:30;;;;;;;23.17;14.25;;;2.60;99.90;;;;;;5066844;28;20559;-85
2022/12/07 01:24:56;;;;;;;25.25;14.68;;;2.60;99.90;;;;;;5059120;28;20108;-85
2022/12/07 01:27:21;;;;;;;23.70;14.38;;;2.60;99.90;;;;;;5061716;28;20111;-85
2022/12/07 01:29:47;;;;;;;24.20;14.70;;;2.60;99.90;;;;;;5066206;28;20082;-85
2022/12/07 01:32:13;;;;;;;22.63;14.85;;;2.60;99.90;;;;;;5061889;28;20075;-86
2022/12/07 01:34:38;;;;;;;24.77;15.15;;;2.60;99.90;;;;;;5064138;28;20025;-85
2022/12/07 01:37:04;;;;;;;28.25;15.55;;;2.60;99.90;;;;;;5063588;28;20016;-85
2022/12/07 01:39:30;;;;;;;25.77;16.50;;;2.60;99.90;;;;;;5059833;28;20020;-85
2022/12/07 01:41:55;;;;;;;27.83;16.65;;;2.60;99.90;;;;;;5061752;28;20055;-84
2022/12/07 01:44:26;;;;;;;26.58;16.60;;;2.70;99.90;;;;;;5065135;28;20027;-86
2022/12/07 01:46:55;;;;;;;32.92;18.13;;;2.70;99.90;;;;;;5054535;28;20028;-86
2022/12/07 01:49:46;;;;;;;29.67;16.98;;;2.70;99.90;;;;;;5061538;28;20055;-86
2022/12/07 01:52:12;;;;;;;32.47;18.80;;;2.70;99.90;;;;;;5060748;28;20274;-85
2022/12/07 01:54:37;;;;;;;28.40;16.20;;;2.80;99.90;;;;;;5063801;28;20030;-85
2022/12/07 01:57:06;;;;;;;29.73;18.27;;;2.80;99.90;;;;;;5054811;28;20020;-84
2022/12/07 01:59:33;;;;;;;26.52;16.88;;;2.90;99.90;;;;;;5059778;28;20047;-84
2022/12/07 02:02:01;;;;;;;32.28;16.23;;;2.90;99.90;;;;;;5060538;28;20047;-86
2022/12/07 02:04:27;;;;;;;29.60;17.15;;;2.90;99.90;;;;;;5060033;28;20029;-84
2022/12/07 02:06:54;;;;;;;24.77;14.70;;;2.90;99.90;;;;;;5062058;28;20028;-86
2022/12/07 02:09:20;;;;;;;22.90;13.50;;;3.00;99.90;;;;;;5063507;28;20039;-85
2022/12/07 02:11:46;;;;;;;19.25;12.23;;;3.00;99.90;;;;;;5064966;28;20103;-86
2022/12/07 02:14:12;;;;;;;22.65;12.70;;;3.00;99.90;;;;;;5062550;28;20405;-84
2022/12/07 02:17:03;;;;;;;16.90;11.05;;;3.00;99.90;;;;;;5059635;28;20112;-85
2022/12/07 02:19:50;;;;;;;16.75;10.18;;;3.00;99.90;;;;;;5057688;28;20028;-85
2022/12/07 02:22:51;;;;;;;17.35;10.45;;;3.00;99.90;;;;;;5054750;28;20521;-84
2022/12/07 02:25:20;;;;;;;14.70;9.48;;;3.10;99.90;;;;;;5057502;28;20013;-85
2022/12/07 02:28:21;;;;;;;14.80;9.10;;;3.10;99.90;;;;;;5061107;28;20108;-85
2022/12/07 02:30:49;;;;;;;15.07;9.05;;;3.10;99.90;;;;;;5056875;28;20063;-83
2022/12/07 02:33:22;;;;;;;14.20;7.75;;;3.20;99.90;;;;;;5062725;28;20039;-85
2022/12/07 02:35:57;;;;;;;10.63;7.63;;;3.20;99.90;;;;;;5058057;28;20059;-84
2022/12/07 02:39:15;;;;;;;9.47;7.27;;;3.20;99.90;;;;;;5055807;28;20024;-85
2022/12/07 02:41:47;;;;;;;10.90;7.75;;;3.20;99.90;;;;;;5054990;28;20025;-85
2022/12/07 02:44:17;;;;;;;12.45;8.57;;;3.10;99.90;;;;;;5062866;28;20020;-86
2022/12/07 02:46:49;;;;;;;12.02;7.65;;;3.10;99.90;;;;;;5055590;28;20025;-86
2022/12/07 02:49:16;;;;;;;9.98;7.57;;;3.10;99.90;;;;;;5065808;28;20043;-88
2022/12/07 02:51:46;;;;;;;11.45;7.57;;;3.10;99.90;;;;;;5062900;28;20016;-86
2022/12/07 02:54:14;;;;;;;8.30;6.10;;;3.10;99.90;;;;;;5063022;28;20035;-87
2022/12/07 02:56:51;;;;;;;8.07;5.88;;;3.10;99.90;;;;;;5058409;28;20024;-85
2022/12/07 02:59:22;;;;;;;6.70;5.55;;;3.10;99.90;;;;;;5054802;28;20071;-86
2022/12/07 03:02:22;;;;;;;7.35;5.70;;;3.20;99.90;;;;;;5061464;28;20472;-87
2022/12/07 03:05:06;;;;;;;5.55;4.50;;;3.10;99.90;;;;;;5058575;28;20026;-86
2022/12/07 03:07:59;;;;;;;6.03;4.53;;;3.10;99.90;;;;;;5056327;28;20087;-87
2022/12/07 03:10:50;;;;;;;6.22;4.68;;;3.20;99.90;;;;;;5047134;28;20048;-87
2022/12/07 03:13:44;;;;;;;4.80;4.07;;;3.20;99.90;;;;;;5056394;28;20017;-86
2022/12/07 03:16:42;;;;;;;4.82;3.80;;;3.20;99.90;;;;;;5054092;28;20717;-88
2022/12/07 03:19:18;;;;;;;8.45;4.22;;;3.20;99.90;;;;;;5059644;28;20029;-88
2022/12/07 03:21:49;;;;;;;5.53;4.20;;;3.20;99.90;;;;;;5059887;28;20143;-86
2022/12/07 03:24:21;;;;;;;4.05;3.60;;;3.20;99.90;;;;;;5053789;28;20031;-88
2022/12/07 03:27:16;;;;;;;6.38;4.15;;;3.10;99.90;;;;;;5057201;28;20419;-88
2022/12/07 03:30:00;;;;;;;4.38;3.40;;;3.10;99.90;;;;;;5056019;28;20128;-88
2022/12/07 03:32:36;;;;;;;4.25;3.53;;;3.10;99.90;;;;;;5059059;28;20115;-88
2022/12/07 03:35:07;;;;;;;3.88;3.40;;;3.20;99.90;;;;;;5050391;28;20552;-89
2022/12/07 03:38:02;;;;;;;3.90;3.30;;;3.10;99.90;;;;;;5056574;28;20025;-89
2022/12/07 03:40:32;;;;;;;4.82;3.00;;;3.10;99.90;;;;;;5053931;28;20032;-89
2022/12/07 03:43:01;;;;;;;4.22;3.00;;;3.10;99.90;;;;;;5055271;28;20035;-88
2022/12/07 03:45:38;;;;;;;2.97;2.67;;;3.10;99.90;;;;;;5059831;28;20111;-89
2022/12/07 03:48:26;;;;;;;3.25;2.80;;;3.20;99.90;;;;;;5055925;28;20425;-87
2022/12/07 03:51:21;;;;;;;3.47;3.13;;;3.20;99.90;;;;;;5052451;28;20444;-88
2022/12/07 03:54:17;;;;;;;2.70;2.50;;;3.20;99.90;;;;;;5055309;28;20123;-88
2022/12/07 03:56:44;;;;;;;3.10;2.65;;;3.20;99.90;;;;;;5062341;28;20040;-88
2022/12/07 03:59:12;;;;;;;3.33;3.08;;;3.20;99.90;;;;;;5060846;28;20029;-87
2022/12/07 04:01:38;;;;;;;3.92;3.15;;;3.10;99.90;;;;;;5055352;28;20373;-90
2022/12/07 04:04:04;;;;;;;4.18;2.70;;;3.20;99.90;;;;;;5061499;28;20044;-90
2022/12/07 04:06:29;;;;;;;2.75;2.40;;;3.10;99.90;;;;;;5056096;28;20021;-89
2022/12/07 04:08:55;;;;;;;3.00;2.10;;;3.10;99.90;;;;;;5058588;28;20572;-88
2022/12/07 04:11:21;;;;;;;2.92;2.40;;;3.00;99.90;;;;;;5052194;28;20056;-88
2022/12/07 04:16:32;;;;;;;2.42;2.22;;;3.10;99.90;;;;;;5067450;28;20136;-88
2022/12/07 04:18:58;;;;;;;2.50;2.30;;;3.10;99.90;;;;;;5063720;28;20036;-89
2022/12/07 04:21:23;;;;;;;2.60;2.08;;;3.10;99.90;;;;;;5069227;28;20035;-88
2022/12/07 04:23:49;;;;;;;2.75;2.47;;;3.10;99.90;;;;;;5065385;28;20445;-88
2022/12/07 04:26:14;;;;;;;2.20;2.00;;;3.10;99.90;;;;;;5063752;28;20030;-88
2022/12/07 04:28:40;;;;;;;2.50;2.30;;;3.10;99.90;;;;;;5066491;28;20380;-87
2022/12/07 04:31:06;;;;;;;2.53;2.33;;;3.20;99.90;;;;;;5068432;28;20067;-89
2022/12/07 04:33:31;;;;;;;3.30;2.40;;;3.20;99.90;;;;;;5060653;28;20089;-84
2022/12/07 04:35:57;;;;;;;4.50;3.00;;;3.20;99.90;;;;;;5059350;28;20102;-87
2022/12/07 04:38:23;;;;;;;4.38;2.72;;;3.20;99.90;;;;;;5064437;28;20354;-88
2022/12/07 04:40:48;;;;;;;6.22;3.45;;;3.20;99.90;;;;;;5064282;28;20457;-88
2022/12/07 04:43:14;;;;;;;6.15;3.70;;;3.20;99.90;;;;;;5066610;28;20013;-85
2022/12/07 04:45:39;;;;;;;4.78;3.38;;;3.20;99.90;;;;;;5067427;28;20036;-88
2022/12/07 04:48:05;;;;;;;5.15;3.72;;;3.30;99.90;;;;;;5063378;28;20028;-88
2022/12/07 04:50:31;;;;;;;6.18;3.30;;;3.20;99.90;;;;;;5067180;28;20040;-90
2022/12/07 04:52:56;;;;;;;4.43;3.45;;;3.30;99.90;;;;;;5062968;28;20040;-89
2022/12/07 04:55:22;;;;;;;13.52;4.18;;;3.30;99.90;;;;;;5062667;28;20020;-88
2022/12/07 04:57:48;;;;;;;6.97;3.05;;;3.30;99.90;;;;;;5063052;28;20031;-89
2022/12/07 05:00:13;;;;;;;12.00;4.13;;;3.40;99.90;;;;;;5063044;28;20074;-89
2022/12/07 05:02:39;;;;;;;10.13;4.40;;;3.30;99.90;;;;;;5060679;28;20027;-88
2022/12/07 05:05:05;;;;;;;5.22;3.85;;;3.30;99.90;;;;;;5062416;28;20110;-85
2022/12/07 05:07:30;;;;;;;8.10;3.58;;;3.40;99.90;;;;;;5059209;28;20454;-88
2022/12/07 05:09:56;;;;;;;9.52;4.10;;;3.40;99.90;;;;;;5064880;28;20036;-88
2022/12/07 05:12:22;;;;;;;14.13;4.18;;;3.40;99.90;;;;;;5061855;28;20473;-89
2022/12/07 05:14:47;;;;;;;17.42;6.25;;;3.30;99.90;;;;;;5060203;28;20067;-88
2022/12/07 05:17:13;;;;;;;7.63;4.57;;;3.30;99.90;;;;;;5065405;28;20023;-87
2022/12/07 05:19:39;;;;;;;13.20;3.85;;;3.30;99.90;;;;;;5061584;28;20028;-86
2022/12/07 05:22:04;;;;;;;10.70;3.75;;;3.30;99.90;;;;;;5062556;28;20431;-89
2022/12/07 05:24:30;;;;;;;8.10;4.05;;;3.30;99.90;;;;;;5062455;28;20350;-88
2022/12/07 05:26:55;;;;;;;11.90;4.75;;;3.30;99.90;;;;;;5060119;28;20047;-88
2022/12/07 05:29:21;;;;;;;15.45;4.40;;;3.30;99.90;;;;;;5060412;28;20534;-86
2022/12/07 05:31:47;;;;;;;8.50;3.60;;;3.40;99.90;;;;;;5063287;28;20452;-83
2022/12/07 05:34:12;;;;;;;18.65;4.60;;;3.40;99.90;;;;;;5067005;28;20043;-86
2022/12/07 05:36:38;;;;;;;15.32;3.70;;;3.40;99.90;;;;;;5062832;28;20025;-88
2022/12/07 05:39:04;;;;;;;10.45;2.83;;;3.40;99.90;;;;;;5059601;28;20103;-87
2022/12/07 05:44:14;;;;;;;8.52;3.28;;;3.50;99.90;;;;;;5060817;28;20035;-86
2022/12/07 05:46:40;;;;;;;9.07;2.90;;;3.50;99.90;;;;;;5055018;28;20023;-86
2022/12/07 05:49:06;;;;;;;10.07;3.15;;;3.60;99.90;;;;;;5059805;28;20131;-88
2022/12/07 05:51:31;;;;;;;14.50;2.70;;;3.60;99.90;;;;;;5062546;28;20080;-87
2022/12/07 05:53:57;;;;;;;12.60;3.45;;;3.60;99.90;;;;;;5062280;28;20025;-87
2022/12/07 05:56:23;;;;;;;20.17;3.20;;;3.70;99.90;;;;;;5062079;28;20025;-84
2022/12/07 06:01:33;;;;;;;10.38;2.55;;;3.60;99.90;;;;;;5063197;28;20047;-88
2022/12/07 06:03:58;;;;;;;10.82;2.80;;;3.70;99.90;;;;;;5061668;28;20153;-87
2022/12/07 06:06:24;;;;;;;8.02;2.58;;;3.70;99.90;;;;;;5055072;28;20025;-88
2022/12/07 06:08:50;;;;;;;11.15;2.72;;;3.70;99.90;;;;;;5067890;28;20028;-89
2022/12/07 06:13:59;;;;;;;7.10;3.28;;;3.70;99.90;;;;;;5059174;28;20224;-87
2022/12/07 06:16:25;;;;;;;7.30;2.80;;;3.70;99.90;;;;;;5059236;28;20548;-85
2022/12/07 06:18:51;;;;;;;5.70;3.25;;;3.70;99.90;;;;;;5056695;28;20028;-86
2022/12/07 06:21:16;;;;;;;11.40;2.47;;;3.70;99.90;;;;;;5060486;28;20008;-87
2022/12/07 06:23:42;;;;;;;6.70;2.50;;;3.70;99.90;;;;;;5058857;28;20195;-87
2022/12/07 06:26:07;;;;;;;25.23;3.15;;;3.60;99.90;;;;;;5056707;28;20028;-83
2022/12/07 06:28:33;;;;;;;7.30;2.40;;;3.60;99.90;;;;;;5066259;28;20036;-88
2022/12/07 06:31:00;;;;;;;7.68;2.92;;;3.60;99.90;;;;;;5059537;28;20024;-86
2022/12/07 06:33:26;;;;;;;10.63;3.08;;;3.60;99.90;;;;;;5056345;28;20024;-86
2022/12/07 06:35:52;;;;;;;5.95;2.30;;;3.60;99.90;;;;;;5062127;28;20070;-86
2022/12/07 06:38:17;;;;;;;7.88;2.65;;;3.60;99.90;;;;;;5058544;28;20468;-84
2022/12/07 06:40:43;;;;;;;16.92;3.42;;;3.60;99.90;;;;;;5061916;28;20624;-89
2022/12/07 06:43:09;;;;;;;8.93;2.75;;;3.60;99.90;;;;;;5060555;28;20016;-87
2022/12/07 06:45:35;;;;;;;8.27;2.78;;;3.60;99.90;;;;;;5052126;28;20043;-87
2022/12/07 06:48:01;;;;;;;18.92;3.08;;;3.60;99.90;;;;;;5052965;28;20032;-86
2022/12/07 06:50:26;;;;;;;8.43;2.63;;;3.60;99.90;;;;;;5062653;28;20496;-89
2022/12/07 06:52:52;;;;;;;15.80;3.35;;;3.60;99.90;;;;;;5063061;28;20051;-87
2022/12/07 06:55:18;;;;;;;12.77;3.08;;;3.60;99.90;;;;;;5059611;28;20024;-88
2022/12/07 06:57:44;;;;;;;7.15;2.75;;;3.60;99.90;;;;;;5060182;28;20021;-89
2022/12/07 07:00:10;;;;;;;10.10;2.75;;;3.60;99.90;;;;;;5055489;28;20401;-90
2022/12/07 07:02:35;;;;;;;9.23;2.60;;;3.50;99.90;;;;;;5059700;28;20025;-90
2022/12/07 07:05:01;;;;;;;6.07;2.67;;;3.40;99.90;;;;;;5055989;28;20028;-90
2022/12/07 07:07:27;;;;;;;6.13;2.83;;;3.40;99.90;;;;;;5056976;28;20044;-90
2022/12/07 07:09:52;;;;;;;4.60;2.60;;;3.30;99.90;;;;;;5053792;28;20032;-90
2022/12/07 07:12:18;;;;;;;8.75;2.58;;;3.20;99.90;;;;;;5053757;28;20020;-89
2022/12/07 07:14:44;;;;;;;4.85;2.15;;;3.20;99.90;;;;;;5055109;28;20020;-89
2022/12/07 07:17:09;;;;;;;7.13;2.53;;;3.10;99.90;;;;;;5059900;28;20024;-89
2022/12/07 07:19:37;;;;;;;4.85;2.55;;;3.10;99.90;;;;;;5056411;28;20489;-89
2022/12/07 07:22:03;;;;;;;9.93;3.00;;;3.00;99.90;;;;;;5058329;28;20083;-90
2022/12/07 07:24:29;;;;;;;10.20;2.85;;;2.90;99.90;;;;;;5059673;28;20465;-90
2022/12/07 07:26:54;;;;;;;8.85;2.80;;;2.90;99.90;;;;;;5062485;28;20123;-89
2022/12/07 07:29:20;;;;;;;4.20;3.28;;;2.90;99.90;;;;;;5058598;28;20033;-89
2022/12/07 07:31:46;;;;;;;8.88;2.97;;;2.80;99.90;;;;;;5051265;28;20112;-90
2022/12/07 07:34:11;;;;;;;6.13;2.60;;;2.70;99.90;;;;;;5046805;28;20033;-90
2022/12/07 07:36:37;;;;;;;19.08;7.15;;;2.70;99.90;;;;;;5051386;28;20112;-89
2022/12/07 07:39:03;;;;;;;15.60;4.63;;;2.80;99.90;;;;;;5049488;28;20311;-89
2022/12/07 07:41:29;;;;;;;56.97;23.17;;;2.80;99.90;;;;;;5056165;28;20089;-88
2022/12/07 07:43:54;;;;;;;20.08;10.00;;;2.90;99.90;;;;;;5063225;28;20107;-87
2022/12/07 07:46:20;;;;;;;17.17;6.38;;;3.00;99.90;;;;;;5060400;28;20025;-87
2022/12/07 07:48:45;;;;;;;16.40;8.32;;;3.10;99.90;;;;;;5055944;28;20123;-90
2022/12/07 07:51:11;;;;;;;37.42;19.95;;;3.10;99.90;;;;;;5053332;28;20074;-87
2022/12/07 07:53:37;;;;;;;18.73;8.25;;;3.10;99.90;;;;;;5059644;28;20025;-88
2022/12/07 07:56:03;;;;;;;19.77;9.55;;;3.10;99.90;;;;;;5055731;28;20025;-86
2022/12/07 07:58:28;;;;;;;27.23;11.80;;;3.10;99.90;;;;;;5063105;28;20485;-90
2022/12/07 08:00:54;;;;;;;44.50;17.95;;;3.10;99.90;;;;;;5056477;28;20131;-91
2022/12/07 08:03:20;;;;;;;16.83;9.40;;;3.10;99.90;;;;;;5065048;28;20125;-90
2022/12/07 08:05:46;;;;;;;24.17;12.10;;;3.00;99.90;;;;;;5057751;28;20090;-88
2022/12/07 08:08:11;;;;;;;14.77;6.07;;;3.00;99.90;;;;;;5061098;28;20016;-90
2022/12/07 08:10:37;;;;;;;7.78;4.63;;;3.00;99.90;;;;;;5060285;28;20037;-90
2022/12/07 08:13:15;;;;;;;9.73;4.57;;;2.90;99.90;;;;;;5056203;28;20462;-91
2022/12/07 08:15:46;;;;;;;13.77;4.90;;;2.90;99.90;;;;;;5050934;28;20039;-91
2022/12/07 08:18:13;;;;;;;10.30;4.30;;;2.90;99.90;;;;;;5056712;28;20111;-90
2022/12/07 08:20:40;;;;;;;20.55;9.52;;;2.90;99.90;;;;;;5050305;28;20025;-91
2022/12/07 08:23:07;;;;;;;23.65;9.00;;;2.90;99.90;;;;;;5049656;28;20059;-90
2022/12/07 08:25:33;;;;;;;14.68;8.57;;;3.00;99.90;;;;;;5051270;28;20535;-90
2022/12/07 08:28:00;;;;;;;18.13;8.95;;;3.00;99.90;;;;;;5053811;28;20445;-89
2022/12/07 08:30:28;;;;;;;15.10;7.32;;;3.10;99.90;;;;;;5053000;28;20036;-86
2022/12/07 08:32:53;;;;;;;15.18;8.10;;;3.10;99.90;;;;;;5057877;28;20020;-89
2022/12/07 08:35:19;;;;;;;10.98;5.85;;;3.20;99.90;;;;;;5061193;28;20031;-88
2022/12/07 08:37:45;;;;;;;29.85;11.52;;;3.30;99.90;;;;;;5065649;28;20024;-88
2022/12/07 08:40:15;;;;;;;12.82;4.65;;;3.30;99.90;;;;;;5055545;28;20039;-90
2022/12/07 08:42:44;;;;;;;10.75;4.57;;;3.20;99.90;;;;;;5062147;28;20028;-90
2022/12/07 08:45:13;;;;;;;10.15;4.28;;;3.30;99.90;;;;;;5065912;28;20028;-87
2022/12/07 08:47:56;;;;;;;13.27;4.22;;;3.30;99.90;;;;;;5064132;28;20035;-90
2022/12/07 08:50:23;;;;;;;6.55;3.72;;;3.30;99.90;;;;;;5053622;28;20032;-90
2022/12/07 08:52:54;;;;;;;10.68;4.57;;;3.40;99.90;;;;;;5050005;28;20024;-89
2022/12/07 08:55:21;;;;;;;11.55;3.67;;;3.40;99.90;;;;;;5049031;28;20021;-90
2022/12/07 08:57:46;;;;;;;8.95;3.33;;;3.40;99.90;;;;;;5047789;28;20095;-90
2022/12/07 09:00:13;;;;;;;11.27;4.18;;;3.40;99.90;;;;;;5059814;28;20137;-86
2022/12/07 09:02:39;;;;;;;9.82;3.58;;;3.40;99.90;;;;;;5056405;28;20076;-90
2022/12/07 09:05:05;;;;;;;9.82;3.55;;;3.40;99.90;;;;;;5054258;28;20497;-90
2022/12/07 09:07:33;;;;;;;10.10;4.10;;;3.40;99.90;;;;;;5054798;28;20021;-86
2022/12/07 09:09:59;;;;;;;10.77;3.42;;;3.40;99.90;;;;;;5061883;28;20033;-90
2022/12/07 09:12:25;;;;;;;7.63;3.33;;;3.40;99.90;;;;;;5069654;28;20024;-88
2022/12/07 09:14:50;;;;;;;5.60;2.80;;;3.40;99.90;;;;;;5066750;28;20032;-89
2022/12/07 09:17:16;;;;;;;7.55;3.22;;;3.50;99.90;;;;;;5057254;28;20013;-90
2022/12/07 09:19:42;;;;;;;10.00;3.40;;;3.50;99.90;;;;;;5060852;28;20477;-88
2022/12/07 09:22:08;;;;;;;6.70;2.72;;;3.60;99.90;;;;;;5062984;28;20020;-93
2022/12/07 09:24:34;;;;;;;14.25;2.80;;;3.50;99.90;;;;;;5067023;28;20025;-86
2022/12/07 09:27:00;;;;;;;9.40;4.55;;;3.50;99.90;;;;;;5061703;28;20031;-88
2022/12/07 09:29:25;;;;;;;8.60;2.58;;;3.60;99.90;;;;;;5064232;28;20032;-90
2022/12/07 09:31:52;;;;;;;8.05;4.97;;;3.50;99.90;;;;;;5062999;28;20024;-88
2022/12/07 09:34:18;;;;;;;7.68;5.43;;;3.50;99.90;;;;;;5060976;28;20019;-90
2022/12/07 09:36:44;;;;;;;9.07;2.88;;;3.50;99.90;;;;;;5054762;28;20017;-91
2022/12/07 09:39:09;;;;;;;5.30;3.53;;;3.50;99.90;;;;;;5055826;28;20036;-90
2022/12/07 09:41:42;;;;;;;10.48;2.17;;;3.50;99.90;;;;;;5058923;28;20086;-87
2022/12/07 09:44:23;;;;;;;4.13;2.10;;;3.50;99.90;;;;;;5063451;28;20461;-90
2022/12/07 09:46:50;;;;;;;5.78;2.03;;;3.50;99.90;;;;;;5059684;28;20029;-90
2022/12/07 09:49:20;;;;;;;4.25;2.05;;;3.50;99.90;;;;;;5058813;28;20033;-88
2022/12/07 09:51:47;;;;;;;4.07;1.85;;;3.50;99.90;;;;;;5058956;28;20021;-88
2022/12/07 09:54:15;;;;;;;3.42;1.63;;;3.50;99.90;;;;;;5059639;28;20094;-87
2022/12/07 09:56:41;;;;;;;6.40;1.80;;;3.50;99.90;;;;;;5059161;28;20025;-88
2022/12/07 09:59:13;;;;;;;3.72;1.63;;;3.50;99.90;;;;;;5060992;28;20068;-89
2022/12/07 10:01:39;;;;;;;6.18;2.10;;;3.50;99.90;;;;;;5059952;28;20028;-90
2022/12/07 10:04:19;;;;;;;5.07;1.70;;;3.50;99.90;;;;;;5050010;28;20041;-88
2022/12/07 10:06:45;;;;;;;7.93;1.80;;;3.60;99.90;;;;;;5054888;28;20096;-87
2022/12/07 10:09:17;;;;;;;2.13;1.83;;;3.50;99.90;;;;;;5063762;28;20107;-90
2022/12/07 10:11:58;;;;;;;2.75;1.55;;;3.60;99.90;;;;;;5061099;28;20558;-88
2022/12/07 10:14:28;;;;;;;11.57;1.92;;;3.60;99.90;;;;;;5051410;28;20418;-91
2022/12/07 10:16:53;;;;;;;11.93;2.35;;;3.60;99.90;;;;;;5060911;28;20077;-89
2022/12/07 10:19:35;;;;;;;2.28;1.50;;;3.60;99.90;;;;;;5062381;28;20105;-90
2022/12/07 10:22:13;;;;;;;4.05;1.98;;;3.60;99.90;;;;;;5060861;28;20017;-90
2022/12/07 10:24:42;;;;;;;2.75;1.60;;;3.60;99.90;;;;;;5060149;28;20021;-87
2022/12/07 10:27:31;;;;;;;3.53;1.60;;;3.70;99.90;;;;;;5060426;28;20031;-91
2022/12/07 10:29:58;;;;;;;4.97;1.55;;;3.70;99.90;;;;;;5057454;28;20487;-88
2022/12/07 10:32:35;;;;;;;4.20;2.00;;;3.70;99.90;;;;;;5064347;28;20031;-88
2022/12/07 10:35:26;;;;;;;4.28;1.80;;;3.80;99.90;;;;;;5053425;28;20051;-88
2022/12/07 10:37:58;;;;;;;5.40;1.80;;;3.80;99.90;;;;;;5059393;28;20042;-91
2022/12/07 10:40:34;;;;;;;2.90;1.30;;;3.80;99.90;;;;;;5061212;28;20020;-90
2022/12/07 10:43:18;;;;;;;10.35;3.53;;;3.80;99.90;;;;;;5062799;28;20315;-90
2022/12/07 10:45:50;;;;;;;3.08;1.67;;;3.80;99.90;;;;;;5057469;28;20056;-91
2022/12/07 10:48:28;;;;;;;9.70;1.60;;;3.80;99.90;;;;;;5065127;28;20025;-90
2022/12/07 10:51:11;;;;;;;4.75;1.60;;;3.80;99.90;;;;;;5063137;28;20063;-89
2022/12/07 10:54:12;;;;;;;6.18;2.20;;;3.80;99.90;;;;;;5064893;28;20028;-90
2022/12/07 10:56:52;;;;;;;4.00;1.90;;;3.80;99.90;;;;;;5061468;28;20028;-90
2022/12/07 10:59:35;;;;;;;9.48;1.98;;;3.90;99.90;;;;;;5054949;28;20032;-90
2022/12/07 11:02:13;;;;;;;6.85;1.52;;;4.00;99.90;;;;;;5056631;28;20480;-89
2022/12/07 11:04:39;;;;;;;3.17;1.40;;;3.90;99.90;;;;;;5061342;28;20509;-88
2022/12/07 11:07:14;;;;;;;7.85;1.52;;;4.00;99.90;;;;;;5053753;28;20107;-85
2022/12/07 11:09:49;;;;;;;3.53;1.60;;;3.90;99.90;;;;;;5059834;28;20041;-89
2022/12/07 11:12:39;;;;;;;2.63;1.50;;;3.90;99.90;;;;;;5059658;28;20071;-90
2022/12/07 11:15:22;;;;;;;5.93;1.90;;;3.80;99.90;;;;;;5052591;28;20024;-88
2022/12/07 11:18:05;;;;;;;2.78;1.60;;;3.80;99.90;;;;;;5055787;28;20027;-87
2022/12/07 11:20:49;;;;;;;1.90;1.30;;;3.80;99.90;;;;;;5061165;28;20024;-87
2022/12/07 11:23:30;;;;;;;5.90;1.55;;;3.80;99.90;;;;;;5052856;28;20016;-89
2022/12/07 11:26:07;;;;;;;6.93;1.60;;;3.80;99.90;;;;;;5056471;28;20036;-89
2022/12/07 11:28:51;;;;;;;4.93;2.50;;;3.80;99.90;;;;;;5060130;28;20241;-87
2022/12/07 11:31:30;;;;;;;4.28;1.48;;;3.80;99.90;;;;;;5055387;28;20013;-89
2022/12/07 11:34:04;;;;;;;1.65;1.55;;;3.80;99.90;;;;;;5060830;28;20051;-89
2022/12/07 11:36:33;;;;;;;4.47;1.90;;;3.90;99.90;;;;;;5059024;28;20350;-88
2022/12/07 11:39:06;;;;;;;5.88;2.10;;;4.00;99.90;;;;;;5061220;28;20376;-88
2022/12/07 11:41:37;;;;;;;5.70;3.83;;;4.00;99.90;;;;;;5061148;28;20477;-84
2022/12/07 11:44:07;;;;;;;5.78;1.73;;;4.00;99.90;;;;;;5058107;28;20021;-86
2022/12/07 11:46:58;;;;;;;6.53;3.10;;;4.00;99.90;;;;;;5055768;28;20028;-88
2022/12/07 11:49:30;;;;;;;5.43;2.50;;;4.00;99.90;;;;;;5061885;28;20029;-88
2022/12/07 11:52:02;;;;;;;12.00;6.38;;;4.00;99.90;;;;;;5057299;28;20055;-87
2022/12/07 11:54:40;;;;;;;5.85;3.03;;;4.00;99.90;;;;;;5053084;28;20033;-89
2022/12/07 11:57:16;;;;;;;13.88;7.32;;;4.10;99.90;;;;;;5053368;28;20078;-88
2022/12/07 11:59:57;;;;;;;8.38;3.60;;;4.00;99.90;;;;;;5060450;28;20036;-89
2022/12/07 12:02:46;;;;;;;3.72;2.13;;;4.10;99.90;;;;;;5061169;28;20056;-87
2022/12/07 12:05:21;;;;;;;7.82;3.65;;;4.10;99.90;;;;;;5057843;28;20028;-87
2022/12/07 12:08:01;;;;;;;11.25;5.25;;;4.20;99.90;;;;;;5053322;28;20156;-88
2022/12/07 12:10:55;;;;;;;6.75;4.28;;;4.20;99.90;;;;;;5060341;28;20036;-87
2022/12/07 12:13:26;;;;;;;8.52;4.75;;;4.20;99.90;;;;;;5052586;28;20458;-87
2022/12/07 12:16:09;;;;;;;16.88;8.57;;;4.20;99.90;;;;;;5051724;28;20028;-89
2022/12/07 12:18:53;;;;;;;15.82;6.43;;;4.20;99.90;;;;;;5054071;28;20036;-89
2022/12/07 12:21:26;;;;;;;25.45;12.63;;;4.30;99.90;;;;;;5048362;28;20025;-86
2022/12/07 12:23:59;;;;;;;11.80;4.97;;;4.30;99.90;;;;;;5052720;28;20028;-88
2022/12/07 12:26:29;;;;;;;8.40;3.08;;;4.30;99.90;;;;;;5057612;28;20017;-87
2022/12/07 12:29:00;;;;;;;8.25;2.53;;;4.30;99.90;;;;;;5056258;28;20064;-89
2022/12/07 12:31:36;;;;;;;6.75;3.42;;;4.30;99.90;;;;;;5054249;28;20017;-86
2022/12/07 12:34:04;;;;;;;3.55;1.90;;;4.20;99.90;;;;;;5056116;28;20377;-88
2022/12/07 12:36:42;;;;;;;2.00;1.70;;;4.20;99.90;;;;;;5067502;28;20035;-87
2022/12/07 12:39:08;;;;;;;2.13;1.60;;;4.10;99.90;;;;;;5056833;28;20171;-88
2022/12/07 12:44:29;;;;;;;4.05;1.65;;;4.10;99.90;;;;;;5057523;28;20025;-88
2022/12/07 12:46:57;;;;;;;2.55;1.70;;;4.10;99.90;;;;;;5061306;28;20573;-86
2022/12/07 12:49:22;;;;;;;3.58;1.50;;;4.10;99.90;;;;;;5063071;28;20381;-86
2022/12/07 12:52:21;;;;;;;2.97;1.70;;;4.10;99.90;;;;;;5059391;28;20024;-88
2022/12/07 12:55:14;;;;;;;1.98;1.45;;;4.10;99.90;;;;;;5039171;28;20041;-88
2022/12/07 12:57:40;;;;;;;2.08;1.40;;;4.00;99.90;;;;;;5054424;28;20120;-88
2022/12/07 13:00:21;;;;;;;1.92;1.30;;;4.00;99.90;;;;;;5063891;28;20090;-88
2022/12/07 13:02:53;;;;;;;3.70;1.80;;;4.00;99.90;;;;;;5062347;28;20024;-88
2022/12/07 13:05:27;;;;;;;3.30;2.50;;;4.00;99.90;;;;;;5060596;28;20083;-88
2022/12/07 13:08:01;;;;;;;5.18;1.63;;;4.00;99.90;;;;;;5063230;28;20513;-88
2022/12/07 13:10:29;;;;;;;7.80;1.40;;;4.00;99.90;;;;;;5057642;28;20275;-86
2022/12/07 13:13:11;;;;;;;3.17;1.40;;;4.00;99.90;;;;;;5059692;28;20103;-88
2022/12/07 13:15:53;;;;;;;1.30;1.20;;;4.00;99.90;;;;;;5065007;28;20338;-87
2022/12/07 13:18:28;;;;;;;1.52;1.38;;;4.00;99.90;;;;;;5059071;28;20052;-87
2022/12/07 13:20:58;;;;;;;9.10;2.85;;;4.00;99.90;;;;;;5066593;28;20478;-87
2022/12/07 13:23:36;;;;;;;1.30;1.20;;;4.00;99.90;;;;;;5059387;28;20021;-88